createdAt,value
2023-04-27T00:00:35.176Z,0.00
2023-04-27T00:01:35.150Z,0.00
2023-04-27T00:02:35.249Z,0.00
2023-04-27T00:03:35.240Z,0.00
2023-04-27T00:04:35.231Z,0.00
2023-04-27T00:05:35.188Z,0.00
2023-04-27T00:06:35.127Z,0.00
2023-04-27T00:07:35.096Z,0.00
2023-04-27T00:08:35.096Z,0.00
2023-04-27T00:09:35.101Z,0.00
2023-04-27T00:10:35.647Z,0.00
2023-04-27T00:11:35.066Z,0.00
2023-04-27T00:12:35.053Z,0.00
2023-04-27T00:13:35.046Z,0.00
2023-04-27T00:14:35.038Z,0.00
2023-04-27T00:15:35.037Z,0.00
2023-04-27T00:16:35.115Z,0.00
2023-04-27T00:17:36.059Z,0.00
2023-04-27T00:18:35.007Z,0.00
2023-04-27T00:19:35.008Z,0.00
2023-04-27T00:20:34.984Z,0.00
2023-04-27T00:22:35.131Z,0.00
2023-04-27T00:23:35.108Z,0.00
2023-04-27T00:24:35.103Z,0.00
2023-04-27T00:25:35.102Z,0.00
2023-04-27T00:26:35.088Z,0.00
2023-04-27T00:27:36.196Z,0.00
2023-04-27T00:28:36.179Z,0.00
2023-04-27T00:29:36.155Z,0.00
2023-04-27T00:30:36.217Z,0.00
2023-04-27T00:31:36.191Z,0.00
2023-04-27T00:32:36.161Z,0.00
2023-04-27T00:33:36.126Z,0.00
2023-04-27T00:34:36.111Z,0.00
2023-04-27T00:35:36.926Z,0.00
2023-04-27T00:36:36.104Z,0.00
2023-04-27T00:37:36.095Z,0.00
2023-04-27T00:38:36.082Z,0.00
2023-04-27T00:39:36.763Z,0.00
2023-04-27T00:40:36.090Z,0.00
2023-04-27T00:41:36.049Z,0.00
2023-04-27T00:42:36.059Z,0.00
2023-04-27T00:43:36.032Z,0.00
2023-04-27T00:44:36.106Z,0.00
2023-04-27T00:45:36.032Z,0.00
2023-04-27T00:46:36.019Z,0.00
2023-04-27T00:47:36.065Z,0.00
2023-04-27T00:48:35.996Z,0.00
2023-04-27T00:49:35.992Z,0.00
2023-04-27T00:50:35.986Z,0.00
2023-04-27T00:51:35.967Z,0.00
2023-04-27T00:52:35.977Z,0.00
2023-04-27T00:53:35.960Z,0.00
2023-04-27T00:54:35.952Z,0.00
2023-04-27T00:55:35.940Z,0.00
2023-04-27T00:56:36.861Z,0.00
2023-04-27T00:57:35.927Z,0.00
2023-04-27T00:58:36.767Z,0.00
2023-04-27T00:59:35.909Z,0.00
2023-04-27T01:00:35.906Z,0.00
2023-04-27T01:01:35.973Z,0.00
2023-04-27T01:02:36.058Z,0.00
2023-04-27T01:03:36.038Z,0.00
2023-04-27T01:04:36.002Z,0.00
2023-04-27T01:05:35.876Z,0.00
2023-04-27T01:06:35.851Z,0.00
2023-04-27T01:07:35.850Z,0.00
2023-04-27T01:08:35.843Z,0.00
2023-04-27T01:09:35.847Z,0.00
2023-04-27T01:10:35.834Z,0.00
2023-04-27T01:11:35.817Z,0.00
2023-04-27T01:12:35.807Z,0.00
2023-04-27T01:13:35.799Z,0.00
2023-04-27T01:14:35.794Z,0.00
2023-04-27T01:15:35.802Z,0.00
2023-04-27T01:16:35.831Z,0.00
2023-04-27T01:17:35.868Z,0.00
2023-04-27T01:18:35.781Z,0.00
2023-04-27T01:19:35.753Z,0.00
2023-04-27T01:20:35.784Z,0.00
2023-04-27T01:21:35.750Z,0.00
2023-04-27T01:22:35.733Z,0.00
2023-04-27T01:23:35.740Z,0.00
2023-04-27T01:24:35.718Z,0.00
2023-04-27T01:25:35.701Z,0.00
2023-04-27T01:26:35.695Z,0.00
2023-04-27T01:27:35.685Z,0.00
2023-04-27T01:28:35.682Z,0.00
2023-04-27T01:29:35.678Z,0.00
2023-04-27T01:30:35.662Z,0.00
2023-04-27T01:31:35.753Z,0.00
2023-04-27T01:32:35.683Z,0.00
2023-04-27T01:33:35.646Z,0.00
2023-04-27T01:34:35.642Z,0.00
2023-04-27T01:35:35.621Z,0.00
2023-04-27T01:36:35.619Z,0.00
2023-04-27T01:37:35.699Z,0.00
2023-04-27T01:38:35.593Z,0.00
2023-04-27T01:39:35.600Z,0.00
2023-04-27T01:40:35.584Z,0.00
2023-04-27T01:41:35.585Z,0.00
2023-04-27T01:42:35.591Z,0.00
2023-04-27T01:43:35.560Z,0.00
2023-04-27T01:44:35.559Z,0.00
2023-04-27T01:45:35.543Z,0.00
2023-04-27T01:46:36.406Z,0.00
2023-04-27T01:47:35.613Z,0.00
2023-04-27T01:48:35.520Z,0.00
2023-04-27T01:49:35.528Z,0.00
2023-04-27T01:50:35.515Z,0.00
2023-04-27T01:51:35.510Z,0.00
2023-04-27T01:52:35.495Z,0.00
2023-04-27T01:53:35.494Z,0.00
2023-04-27T01:54:35.480Z,0.00
2023-04-27T01:55:35.468Z,0.00
2023-04-27T01:56:35.458Z,0.00
2023-04-27T01:57:35.504Z,0.00
2023-04-27T01:58:35.455Z,0.00
2023-04-27T01:59:35.437Z,0.00
2023-04-27T02:00:36.432Z,0.00
2023-04-27T02:01:35.507Z,0.00
2023-04-27T02:02:35.517Z,0.00
2023-04-27T02:03:35.505Z,0.00
2023-04-27T02:04:35.491Z,0.00
2023-04-27T02:05:35.407Z,0.00
2023-04-27T02:06:35.388Z,0.00
2023-04-27T02:07:35.377Z,0.00
2023-04-27T02:08:35.414Z,0.00
2023-04-27T02:09:35.372Z,0.00
2023-04-27T02:10:35.377Z,0.00
2023-04-27T02:11:35.372Z,0.00
2023-04-27T02:12:35.339Z,0.00
2023-04-27T02:13:35.325Z,0.00
2023-04-27T02:14:35.337Z,0.00
2023-04-27T02:15:35.320Z,0.00
2023-04-27T02:16:35.435Z,0.00
2023-04-27T02:17:35.395Z,0.00
2023-04-27T02:18:35.312Z,0.00
2023-04-27T02:19:35.303Z,0.00
2023-04-27T02:20:35.280Z,0.00
2023-04-27T02:21:35.288Z,0.00
2023-04-27T02:22:35.277Z,0.00
2023-04-27T02:23:35.263Z,0.00
2023-04-27T02:24:35.243Z,0.00
2023-04-27T02:25:35.234Z,0.00
2023-04-27T02:26:35.277Z,0.00
2023-04-27T02:27:35.222Z,0.00
2023-04-27T02:28:35.227Z,0.00
2023-04-27T02:29:35.206Z,0.00
2023-04-27T02:30:35.204Z,0.00
2023-04-27T02:31:35.254Z,0.00
2023-04-27T02:32:35.188Z,0.00
2023-04-27T02:33:35.183Z,0.00
2023-04-27T02:34:35.171Z,0.00
2023-04-27T02:35:35.159Z,0.00
2023-04-27T02:36:35.186Z,0.00
2023-04-27T02:37:35.165Z,0.00
2023-04-27T02:38:35.153Z,0.00
2023-04-27T02:39:35.133Z,0.00
2023-04-27T02:40:35.272Z,0.00
2023-04-27T02:41:35.116Z,0.00
2023-04-27T02:42:35.119Z,0.00
2023-04-27T02:43:35.106Z,0.00
2023-04-27T02:44:35.094Z,0.00
2023-04-27T02:45:35.082Z,0.00
2023-04-27T02:46:35.110Z,0.00
2023-04-27T02:47:35.106Z,0.00
2023-04-27T02:48:35.055Z,0.00
2023-04-27T02:49:36.709Z,0.00
2023-04-27T02:50:35.035Z,0.00
2023-04-27T02:51:35.050Z,0.00
2023-04-27T02:52:35.055Z,0.00
2023-04-27T02:53:35.010Z,0.00
2023-04-27T02:54:35.003Z,0.00
2023-04-27T02:55:34.996Z,0.00
2023-04-27T02:56:34.992Z,0.00
2023-04-27T02:57:34.994Z,0.00
2023-04-27T02:58:34.987Z,0.00
2023-04-27T02:59:34.987Z,0.00
2023-04-27T03:00:34.968Z,0.00
2023-04-27T03:01:34.996Z,0.00
2023-04-27T03:02:35.140Z,0.00
2023-04-27T03:03:35.125Z,0.00
2023-04-27T03:04:34.966Z,0.00
2023-04-27T03:05:34.924Z,0.00
2023-04-27T03:06:35.785Z,0.00
2023-04-27T03:07:34.914Z,0.00
2023-04-27T03:08:34.914Z,0.00
2023-04-27T03:09:34.942Z,0.00
2023-04-27T03:10:34.890Z,0.00
2023-04-27T03:11:37.204Z,0.00
2023-04-27T03:12:34.880Z,0.00
2023-04-27T03:13:34.872Z,0.00
2023-04-27T03:14:34.868Z,0.00
2023-04-27T03:15:34.852Z,0.00
2023-04-27T03:16:34.905Z,0.00
2023-04-27T03:17:34.852Z,0.00
2023-04-27T03:18:34.850Z,0.00
2023-04-27T03:19:34.824Z,0.00
2023-04-27T03:20:34.817Z,0.00
2023-04-27T03:21:34.844Z,0.00
2023-04-27T03:22:34.803Z,0.00
2023-04-27T03:23:34.808Z,0.00
2023-04-27T03:24:34.778Z,0.00
2023-04-27T03:25:34.779Z,0.00
2023-04-27T03:26:34.763Z,0.00
2023-04-27T03:27:34.760Z,0.00
2023-04-27T03:28:34.756Z,0.00
2023-04-27T03:29:34.746Z,0.00
2023-04-27T03:30:34.738Z,0.00
2023-04-27T03:31:34.761Z,0.00
2023-04-27T03:32:34.752Z,0.00
2023-04-27T03:33:34.715Z,0.00
2023-04-27T03:34:34.715Z,4.00
2023-04-27T03:35:34.696Z,4.00
2023-04-27T03:36:34.703Z,0.00
2023-04-27T03:37:34.690Z,0.00
2023-04-27T03:38:34.686Z,4.00
2023-04-27T03:39:34.673Z,4.00
2023-04-27T03:40:34.662Z,4.00
2023-04-27T03:41:34.664Z,4.00
2023-04-27T03:42:34.640Z,4.00
2023-04-27T03:43:34.641Z,4.00
2023-04-27T03:44:34.653Z,4.00
2023-04-27T03:45:34.624Z,8.00
2023-04-27T03:46:34.905Z,8.00
2023-04-27T03:47:34.682Z,8.00
2023-04-27T03:48:34.604Z,8.00
2023-04-27T03:49:34.590Z,12.00
2023-04-27T03:50:34.613Z,12.00
2023-04-27T03:51:34.593Z,16.00
2023-04-27T03:52:34.580Z,16.00
2023-04-27T03:53:34.571Z,20.00
2023-04-27T03:54:34.598Z,24.00
2023-04-27T03:55:34.538Z,28.00
2023-04-27T03:56:34.548Z,32.00
2023-04-27T03:57:34.540Z,40.00
2023-04-27T03:58:34.543Z,44.00
2023-04-27T03:59:34.518Z,52.00
2023-04-27T04:00:34.518Z,56.00
2023-04-27T04:01:34.500Z,64.00
2023-04-27T04:02:34.546Z,72.00
2023-04-27T04:03:34.569Z,80.00
2023-04-27T04:04:34.635Z,92.00
2023-04-27T04:05:34.471Z,104.00
2023-04-27T04:06:34.465Z,116.00
2023-04-27T04:07:34.455Z,124.00
2023-04-27T04:08:34.467Z,128.00
2023-04-27T04:09:34.504Z,124.00
2023-04-27T04:10:34.442Z,128.00
2023-04-27T04:11:34.429Z,128.00
2023-04-27T04:12:34.429Z,136.00
2023-04-27T04:13:34.412Z,136.00
2023-04-27T04:14:34.417Z,144.00
2023-04-27T04:15:34.471Z,144.00
2023-04-27T04:16:34.390Z,148.00
2023-04-27T04:17:34.439Z,156.00
2023-04-27T04:18:34.383Z,164.00
2023-04-27T04:19:35.334Z,176.00
2023-04-27T04:20:35.322Z,188.00
2023-04-27T04:21:34.357Z,208.00
2023-04-27T04:22:34.373Z,236.00
2023-04-27T04:23:34.358Z,268.00
2023-04-27T04:24:34.346Z,296.00
2023-04-27T04:25:34.342Z,324.00
2023-04-27T04:26:34.334Z,356.00
2023-04-27T04:27:34.320Z,404.00
2023-04-27T04:28:34.316Z,444.00
2023-04-27T04:29:34.305Z,468.00
2023-04-27T04:30:34.297Z,508.00
2023-04-27T04:31:34.321Z,548.00
2023-04-27T04:32:34.284Z,588.00
2023-04-27T04:33:34.260Z,624.00
2023-04-27T04:34:34.256Z,660.00
2023-04-27T04:35:34.297Z,700.00
2023-04-27T04:36:34.238Z,792.00
2023-04-27T04:37:34.232Z,824.00
2023-04-27T04:38:34.219Z,900.00
2023-04-27T04:39:34.222Z,980.00
2023-04-27T04:40:34.242Z,1076.00
2023-04-27T04:41:34.809Z,1164.00
2023-04-27T04:42:49.971Z,1244.00
2023-04-27T04:43:34.186Z,1332.00
2023-04-27T04:44:35.162Z,1408.00
2023-04-27T04:45:34.194Z,1476.00
2023-04-27T04:46:34.199Z,1576.00
2023-04-27T04:47:34.198Z,1680.00
2023-04-27T04:48:34.180Z,1820.00
2023-04-27T04:49:34.142Z,1956.00
2023-04-27T04:50:34.889Z,2032.00
2023-04-27T04:51:34.124Z,2116.00
2023-04-27T04:52:35.893Z,2128.00
2023-04-27T04:53:34.113Z,2060.00
2023-04-27T04:54:34.108Z,2072.00
2023-04-27T04:55:35.100Z,2088.00
2023-04-27T04:56:34.071Z,2132.00
2023-04-27T04:57:34.102Z,2288.00
2023-04-27T04:58:34.070Z,2484.00
2023-04-27T04:59:34.079Z,2688.00
2023-04-27T05:00:34.063Z,2856.00
2023-04-27T05:01:34.100Z,2872.00
2023-04-27T05:02:34.985Z,2808.00
2023-04-27T05:03:34.220Z,2744.00
2023-04-27T05:04:34.142Z,2788.00
2023-04-27T05:05:34.438Z,2800.00
2023-04-27T05:06:35.898Z,2780.00
2023-04-27T05:07:34.032Z,2768.00
2023-04-27T05:08:34.013Z,2776.00
2023-04-27T05:09:34.880Z,2800.00
2023-04-27T05:10:33.991Z,3452.00
2023-04-27T05:11:33.980Z,2848.00
2023-04-27T05:12:33.958Z,2868.00
2023-04-27T05:14:41.358Z,2908.00
2023-04-27T05:15:43.244Z,2816.00
2023-04-27T05:16:44.300Z,2716.00
2023-04-27T05:17:43.244Z,2648.00
2023-04-27T05:18:42.430Z,2624.00
2023-04-27T05:19:42.415Z,2604.00
2023-04-27T05:20:42.409Z,2784.00
2023-04-27T05:21:42.393Z,2980.00
2023-04-27T05:22:42.407Z,3056.00
2023-04-27T05:23:42.420Z,3224.00
2023-04-27T05:24:42.393Z,3488.00
2023-04-27T05:25:42.437Z,3800.00
2023-04-27T05:26:42.374Z,4156.00
2023-04-27T05:27:43.151Z,4556.00
2023-04-27T05:28:42.341Z,4956.00
2023-04-27T05:29:42.376Z,5324.00
2023-04-27T05:30:42.344Z,5848.00
2023-04-27T05:31:42.316Z,8848.00
2023-04-27T05:32:42.368Z,7152.00
2023-04-27T05:33:42.296Z,7856.00
2023-04-27T05:34:42.303Z,8692.00
2023-04-27T05:35:42.336Z,12736.00
2023-04-27T05:36:42.279Z,10768.00
2023-04-27T05:37:43.275Z,12060.00
2023-04-27T05:38:42.260Z,18240.00
2023-04-27T05:39:42.308Z,39232.00
2023-04-27T05:40:42.258Z,36672.00
2023-04-27T05:41:42.423Z,38720.00
2023-04-27T05:42:42.224Z,34080.00
2023-04-27T05:43:42.232Z,33888.00
2023-04-27T05:44:42.250Z,20160.00
2023-04-27T05:45:42.243Z,14728.00
2023-04-27T05:46:42.208Z,20512.00
2023-04-27T05:47:42.246Z,18464.00
2023-04-27T05:48:42.179Z,16160.00
2023-04-27T05:49:42.200Z,18496.00
2023-04-27T05:50:42.194Z,34432.00
2023-04-27T05:51:42.662Z,47296.00
2023-04-27T05:52:42.192Z,48128.00
2023-04-27T05:53:42.180Z,47456.00
2023-04-27T05:54:43.732Z,46720.00
2023-04-27T05:55:42.155Z,46400.00
2023-04-27T05:56:42.186Z,32480.00
2023-04-27T05:57:42.165Z,35360.00
2023-04-27T05:58:42.170Z,46176.00
2023-04-27T05:59:42.090Z,25856.00
2023-04-27T06:00:42.098Z,21056.00
2023-04-27T06:01:42.160Z,26016.00
2023-04-27T06:02:42.217Z,22560.00
2023-04-27T06:03:42.213Z,29824.00
2023-04-27T06:04:42.086Z,38656.00
2023-04-27T06:05:42.104Z,37280.00
2023-04-27T06:06:42.058Z,36960.00
2023-04-27T06:07:42.791Z,35072.00
2023-04-27T06:08:43.748Z,32928.00
2023-04-27T06:09:42.014Z,33120.00
2023-04-27T06:10:42.020Z,33152.00
2023-04-27T06:11:42.685Z,28032.00
2023-04-27T06:12:42.753Z,24960.00
2023-04-27T06:13:42.011Z,32096.00
2023-04-27T06:14:42.037Z,31968.00
2023-04-27T06:15:42.109Z,33280.00
2023-04-27T06:16:41.962Z,33408.00
2023-04-27T06:17:41.998Z,33024.00
2023-04-27T06:18:41.965Z,32544.00
2023-04-27T06:19:41.984Z,32480.00
2023-04-27T06:20:45.003Z,35040.00
2023-04-27T06:21:41.932Z,35904.00
2023-04-27T06:22:43.669Z,35296.00
2023-04-27T06:23:42.140Z,37664.00
2023-04-27T06:24:42.902Z,37376.00
2023-04-27T06:25:43.675Z,30208.00
2023-04-27T06:26:43.710Z,25568.00
2023-04-27T06:27:41.908Z,21376.00
2023-04-27T06:28:41.872Z,19584.00
2023-04-27T06:29:41.882Z,25856.00
2023-04-27T06:30:41.874Z,36896.00
2023-04-27T06:31:42.747Z,35808.00
2023-04-27T06:32:42.849Z,21408.00
2023-04-27T06:33:41.859Z,39360.00
2023-04-27T06:34:41.842Z,32192.00
2023-04-27T06:35:42.701Z,28832.00
2023-04-27T06:36:41.802Z,18912.00
2023-04-27T06:37:41.813Z,19008.00
2023-04-27T06:38:41.814Z,22944.00
2023-04-27T06:39:41.814Z,20672.00
2023-04-27T06:40:41.794Z,14844.00
2023-04-27T06:41:41.823Z,18048.00
2023-04-27T06:42:41.793Z,13868.00
2023-04-27T06:43:41.789Z,14616.00
2023-04-27T06:44:41.754Z,23008.00
2023-04-27T06:45:41.801Z,44640.00
2023-04-27T06:46:41.806Z,21088.00
2023-04-27T06:47:41.797Z,15744.00
2023-04-27T06:48:41.718Z,13920.00
2023-04-27T06:49:41.728Z,12908.00
2023-04-27T06:50:42.003Z,12796.00
2023-04-27T06:51:41.703Z,13508.00
2023-04-27T06:52:41.699Z,13712.00
2023-04-27T06:53:43.179Z,13824.00
2023-04-27T06:54:41.675Z,19328.00
2023-04-27T06:55:43.861Z,13860.00
2023-04-27T06:56:42.661Z,13648.00
2023-04-27T06:57:41.646Z,13948.00
2023-04-27T06:58:41.637Z,19232.00
2023-04-27T06:59:41.637Z,15968.00
2023-04-27T07:00:41.619Z,16448.00
2023-04-27T07:01:41.745Z,16256.00
2023-04-27T07:02:41.680Z,16512.00
2023-04-27T07:03:41.888Z,15308.00
2023-04-27T07:04:43.339Z,16832.00
2023-04-27T07:05:41.578Z,16512.00
2023-04-27T07:06:41.578Z,17184.00
2023-04-27T07:07:41.557Z,18944.00
2023-04-27T07:08:41.563Z,26560.00
2023-04-27T07:09:41.555Z,21152.00
2023-04-27T07:10:41.541Z,19200.00
2023-04-27T07:11:41.535Z,31328.00
2023-04-27T07:12:41.551Z,18880.00
2023-04-27T07:13:41.524Z,19264.00
2023-04-27T07:14:41.517Z,20672.00
2023-04-27T07:15:41.527Z,18464.00
2023-04-27T07:16:41.531Z,18176.00
2023-04-27T07:17:41.588Z,21568.00
2023-04-27T07:18:43.297Z,33312.00
2023-04-27T07:19:42.492Z,40640.00
2023-04-27T07:20:41.479Z,43200.00
2023-04-27T07:21:44.283Z,17920.00
2023-04-27T07:22:41.442Z,42432.00
2023-04-27T07:23:41.467Z,39648.00
2023-04-27T07:24:41.434Z,38208.00
2023-04-27T07:25:41.426Z,34432.00
2023-04-27T07:26:41.418Z,22880.00
2023-04-27T07:27:42.219Z,24960.00
2023-04-27T07:28:41.422Z,18752.00
2023-04-27T07:29:41.386Z,18624.00
2023-04-27T07:30:41.384Z,51456.00
2023-04-27T07:31:41.507Z,62656.00
2023-04-27T07:32:41.396Z,69632.00
2023-04-27T07:33:41.461Z,76224.00
2023-04-27T07:34:52.592Z,75008.00
2023-04-27T07:35:43.378Z,32640.00
2023-04-27T07:36:41.373Z,26944.00
2023-04-27T07:37:42.360Z,17120.00
2023-04-27T07:38:41.335Z,16424.00
2023-04-27T07:39:41.291Z,24896.00
2023-04-27T07:40:44.338Z,20704.00
2023-04-27T07:41:41.320Z,22336.00
2023-04-27T07:42:41.300Z,21216.00
2023-04-27T07:43:41.275Z,20256.00
2023-04-27T07:44:41.270Z,19488.00
2023-04-27T07:45:41.398Z,18528.00
2023-04-27T07:46:41.261Z,17568.00
2023-04-27T07:47:41.282Z,16920.00
2023-04-27T07:48:41.240Z,16624.00
2023-04-27T07:49:41.250Z,16188.00
2023-04-27T07:50:41.223Z,15672.00
2023-04-27T07:51:41.218Z,15256.00
2023-04-27T07:52:41.238Z,15016.00
2023-04-27T07:53:41.202Z,14648.00
2023-04-27T07:54:41.192Z,14280.00
2023-04-27T07:55:41.183Z,13952.00
2023-04-27T07:56:41.171Z,13624.00
2023-04-27T07:57:41.700Z,13352.00
2023-04-27T07:58:41.165Z,13144.00
2023-04-27T07:59:41.162Z,12892.00
2023-04-27T08:00:41.146Z,12640.00
2023-04-27T08:01:41.175Z,12404.00
2023-04-27T08:02:41.269Z,12188.00
2023-04-27T08:03:41.400Z,12044.00
2023-04-27T08:04:41.279Z,11896.00
2023-04-27T08:05:41.392Z,11784.00
2023-04-27T08:06:42.211Z,12044.00
2023-04-27T08:07:44.375Z,11464.00
2023-04-27T08:08:42.102Z,11340.00
2023-04-27T08:09:41.084Z,11204.00
2023-04-27T08:10:41.055Z,11132.00
2023-04-27T08:11:41.077Z,11016.00
2023-04-27T08:12:41.078Z,11048.00
2023-04-27T08:13:41.037Z,10892.00
2023-04-27T08:14:41.035Z,10836.00
2023-04-27T08:15:41.020Z,10788.00
2023-04-27T08:16:41.058Z,10744.00
2023-04-27T08:17:41.176Z,10588.00
2023-04-27T08:18:41.003Z,10520.00
2023-04-27T08:19:41.006Z,10532.00
2023-04-27T08:20:40.994Z,10456.00
2023-04-27T08:21:43.793Z,10368.00
2023-04-27T08:22:40.968Z,10336.00
2023-04-27T08:23:40.969Z,10292.00
2023-04-27T08:25:47.533Z,10172.00
2023-04-27T08:26:48.612Z,10092.00
2023-04-27T08:27:48.613Z,10100.00
2023-04-27T08:28:48.601Z,9928.00
2023-04-27T08:29:48.583Z,9928.00
2023-04-27T08:30:48.587Z,9912.00
2023-04-27T08:31:48.748Z,9784.00
2023-04-27T08:32:48.621Z,9696.00
2023-04-27T08:33:48.562Z,9776.00
2023-04-27T08:34:48.575Z,9644.00
2023-04-27T08:35:48.530Z,9600.00
2023-04-27T08:36:48.525Z,9596.00
2023-04-27T08:37:48.524Z,9536.00
2023-04-27T08:38:48.523Z,9604.00
2023-04-27T08:39:49.208Z,9556.00
2023-04-27T08:40:48.497Z,9576.00
2023-04-27T08:41:48.508Z,9556.00
2023-04-27T08:42:48.485Z,9552.00
2023-04-27T08:43:48.469Z,9556.00
2023-04-27T08:44:48.472Z,9536.00
2023-04-27T08:45:48.458Z,9488.00
2023-04-27T08:46:48.631Z,9468.00
2023-04-27T08:47:48.496Z,9400.00
2023-04-27T08:48:48.446Z,9332.00
2023-04-27T08:49:49.451Z,9304.00
2023-04-27T08:50:48.425Z,9184.00
2023-04-27T08:51:48.433Z,9192.00
2023-04-27T08:52:49.277Z,9168.00
2023-04-27T08:53:48.395Z,9188.00
2023-04-27T08:54:48.389Z,9172.00
2023-04-27T08:55:49.208Z,8960.00
2023-04-27T08:56:48.405Z,8968.00
2023-04-27T08:57:48.382Z,8944.00
2023-04-27T08:58:49.181Z,8888.00
2023-04-27T08:59:48.339Z,8836.00
2023-04-27T09:00:49.067Z,8756.00
2023-04-27T09:01:48.488Z,8688.00
2023-04-27T09:02:48.588Z,8692.00
2023-04-27T09:03:49.478Z,8556.00
2023-04-27T09:04:50.361Z,8432.00
2023-04-27T09:06:02.979Z,8388.00
2023-04-27T09:06:50.302Z,8316.00
2023-04-27T09:07:48.279Z,8340.00
2023-04-27T09:08:48.312Z,8332.00
2023-04-27T09:09:48.298Z,8240.00
2023-04-27T09:10:48.285Z,8212.00
2023-04-27T09:11:48.245Z,8184.00
2023-04-27T09:12:48.245Z,8180.00
2023-04-27T09:13:48.257Z,8220.00
2023-04-27T09:14:48.219Z,8212.00
2023-04-27T09:15:48.683Z,8208.00
2023-04-27T09:16:49.255Z,8288.00
2023-04-27T09:17:50.804Z,8360.00
2023-04-27T09:18:48.202Z,8440.00
2023-04-27T09:19:48.751Z,8400.00
2023-04-27T09:20:49.193Z,8396.00
2023-04-27T09:21:48.172Z,8444.00
2023-04-27T09:22:48.151Z,8336.00
2023-04-27T09:23:48.184Z,8200.00
2023-04-27T09:24:48.154Z,8312.00
2023-04-27T09:25:48.135Z,8284.00
2023-04-27T09:26:48.117Z,8388.00
2023-04-27T09:27:48.115Z,8496.00
2023-04-27T09:28:48.144Z,8528.00
2023-04-27T09:29:48.107Z,8524.00
2023-04-27T09:30:48.082Z,8556.00
2023-04-27T09:31:48.116Z,8592.00
2023-04-27T09:32:48.095Z,8620.00
2023-04-27T09:33:48.089Z,8696.00
2023-04-27T09:34:48.135Z,8684.00
2023-04-27T09:35:48.059Z,8648.00
2023-04-27T09:36:48.780Z,8620.00
2023-04-27T09:37:49.685Z,8652.00
2023-04-27T09:38:48.027Z,8524.00
2023-04-27T09:39:48.049Z,8444.00
2023-04-27T09:40:48.185Z,8424.00
2023-04-27T09:41:48.218Z,8372.00
2023-04-27T09:42:48.039Z,8352.00
2023-04-27T09:43:47.987Z,8316.00
2023-04-27T09:44:47.999Z,8392.00
2023-04-27T09:45:48.011Z,8180.00
2023-04-27T09:46:47.960Z,8128.00
2023-04-27T09:47:48.001Z,8244.00
2023-04-27T09:48:47.945Z,8232.00
2023-04-27T09:49:47.962Z,8284.00
2023-04-27T09:50:50.777Z,8276.00
2023-04-27T09:51:47.942Z,8332.00
2023-04-27T09:52:47.942Z,8268.00
2023-04-27T09:53:47.923Z,8292.00
2023-04-27T09:54:47.901Z,8308.00
2023-04-27T09:55:49.513Z,8620.00
2023-04-27T09:56:48.733Z,8632.00
2023-04-27T09:57:47.931Z,8508.00
2023-04-27T09:58:47.881Z,8484.00
2023-04-27T09:59:47.876Z,8476.00
2023-04-27T10:00:47.871Z,8688.00
2023-04-27T10:01:47.889Z,8948.00
2023-04-27T10:02:53.030Z,8964.00
2023-04-27T10:03:49.913Z,8920.00
2023-04-27T10:04:48.713Z,9004.00
2023-04-27T10:05:48.780Z,9116.00
2023-04-27T10:06:47.851Z,9232.00
2023-04-27T10:07:47.805Z,9532.00
2023-04-27T10:08:47.796Z,9900.00
2023-04-27T10:09:47.796Z,10184.00
2023-04-27T10:10:47.789Z,10396.00
2023-04-27T10:11:47.771Z,10456.00
2023-04-27T10:12:47.789Z,10484.00
2023-04-27T10:13:47.784Z,10584.00
2023-04-27T10:14:47.741Z,10368.00
2023-04-27T10:15:47.726Z,10152.00
2023-04-27T10:16:47.794Z,9780.00
2023-04-27T10:17:47.772Z,9764.00
2023-04-27T10:18:47.728Z,9712.00
2023-04-27T10:19:47.706Z,9844.00
2023-04-27T10:20:47.698Z,10140.00
2023-04-27T10:21:47.683Z,10564.00
2023-04-27T10:22:47.690Z,10896.00
2023-04-27T10:23:47.705Z,10916.00
2023-04-27T10:24:47.688Z,11404.00
2023-04-27T10:25:47.677Z,11340.00
2023-04-27T10:26:48.225Z,11240.00
2023-04-27T10:27:47.630Z,11660.00
2023-04-27T10:28:47.630Z,11656.00
2023-04-27T10:29:47.635Z,11704.00
2023-04-27T10:30:47.669Z,11248.00
2023-04-27T10:31:47.751Z,11448.00
2023-04-27T10:32:47.633Z,11360.00
2023-04-27T10:33:47.591Z,10808.00
2023-04-27T10:34:47.611Z,10688.00
2023-04-27T10:35:47.584Z,9704.00
2023-04-27T10:36:47.578Z,9436.00
2023-04-27T10:37:47.563Z,9324.00
2023-04-27T10:38:47.554Z,9500.00
2023-04-27T10:39:49.616Z,8868.00
2023-04-27T10:40:49.286Z,8892.00
2023-04-27T10:41:47.537Z,9244.00
2023-04-27T10:42:47.527Z,10112.00
2023-04-27T10:43:47.538Z,9388.00
2023-04-27T10:44:47.508Z,8964.00
2023-04-27T10:45:47.553Z,8760.00
2023-04-27T10:46:47.499Z,8972.00
2023-04-27T10:47:47.522Z,8604.00
2023-04-27T10:48:47.493Z,8720.00
2023-04-27T10:49:47.482Z,8676.00
2023-04-27T10:50:47.470Z,8740.00
2023-04-27T10:51:47.467Z,8744.00
2023-04-27T10:52:47.442Z,8344.00
2023-04-27T10:53:47.436Z,7784.00
2023-04-27T10:54:47.449Z,7388.00
2023-04-27T10:55:47.445Z,7108.00
2023-04-27T10:56:48.319Z,6868.00
2023-04-27T10:57:47.405Z,7808.00
2023-04-27T10:58:50.232Z,7568.00
2023-04-27T10:59:49.321Z,7820.00
2023-04-27T11:00:47.420Z,8016.00
2023-04-27T11:01:48.346Z,8084.00
2023-04-27T11:02:47.507Z,8140.00
2023-04-27T11:03:49.348Z,7688.00
2023-04-27T11:04:47.402Z,8000.00
2023-04-27T11:05:48.262Z,7972.00
2023-04-27T11:06:47.365Z,7456.00
2023-04-27T11:07:47.326Z,7436.00
2023-04-27T11:08:47.329Z,6656.00
2023-04-27T11:09:47.307Z,6264.00
2023-04-27T11:10:47.311Z,6340.00
2023-04-27T11:11:47.312Z,7112.00
2023-04-27T11:12:47.283Z,7444.00
2023-04-27T11:13:47.281Z,7396.00
2023-04-27T11:14:47.269Z,7328.00
2023-04-27T11:15:47.400Z,7336.00
2023-04-27T11:16:47.340Z,6248.00
2023-04-27T11:17:47.292Z,5936.00
2023-04-27T11:18:47.278Z,5712.00
2023-04-27T11:19:47.225Z,5588.00
2023-04-27T11:20:47.238Z,5772.00
2023-04-27T11:21:47.223Z,6164.00
2023-04-27T11:22:47.212Z,6232.00
2023-04-27T11:23:47.202Z,6364.00
2023-04-27T11:24:47.207Z,7172.00
2023-04-27T11:25:47.174Z,5788.00
2023-04-27T11:26:49.802Z,5508.00
2023-04-27T11:27:47.173Z,5448.00
2023-04-27T11:28:47.176Z,5400.00
2023-04-27T11:29:47.144Z,5400.00
2023-04-27T11:30:47.142Z,5528.00
2023-04-27T11:31:47.206Z,6044.00
2023-04-27T11:32:47.161Z,6644.00
2023-04-27T11:33:47.118Z,6644.00
2023-04-27T11:34:47.131Z,5888.00
2023-04-27T11:35:47.123Z,5960.00
2023-04-27T11:36:47.802Z,6116.00
2023-04-27T11:37:47.097Z,6120.00
2023-04-27T11:38:47.145Z,7048.00
2023-04-27T11:39:47.070Z,7184.00
2023-04-27T11:40:47.054Z,7328.00
2023-04-27T11:41:47.082Z,7468.00
2023-04-27T11:42:47.057Z,7184.00
2023-04-27T11:43:47.046Z,7180.00
2023-04-27T11:44:47.048Z,6964.00
2023-04-27T11:45:49.828Z,6544.00
2023-04-27T11:46:48.025Z,6856.00
2023-04-27T11:47:47.067Z,7048.00
2023-04-27T11:48:46.992Z,7016.00
2023-04-27T11:49:47.013Z,6984.00
2023-04-27T11:50:47.021Z,7012.00
2023-04-27T11:51:47.756Z,7012.00
2023-04-27T11:52:47.279Z,7152.00
2023-04-27T11:53:46.988Z,7248.00
2023-04-27T11:54:46.973Z,7308.00
2023-04-27T11:55:46.954Z,7228.00
2023-04-27T11:56:46.941Z,7164.00
2023-04-27T11:57:46.939Z,6988.00
2023-04-27T11:58:46.949Z,7056.00
2023-04-27T11:59:46.914Z,7068.00
2023-04-27T12:00:46.903Z,7096.00
2023-04-27T12:01:46.934Z,7072.00
2023-04-27T12:02:47.023Z,7060.00
2023-04-27T12:03:47.980Z,7056.00
2023-04-27T12:04:46.950Z,7040.00
2023-04-27T12:05:46.939Z,7040.00
2023-04-27T12:06:46.851Z,6916.00
2023-04-27T12:07:46.834Z,6780.00
2023-04-27T12:08:46.848Z,6764.00
2023-04-27T12:09:48.773Z,6660.00
2023-04-27T12:10:46.833Z,6636.00
2023-04-27T12:11:46.837Z,6628.00
2023-04-27T12:12:46.802Z,6592.00
2023-04-27T12:13:46.788Z,6580.00
2023-04-27T12:14:46.778Z,6552.00
2023-04-27T12:15:46.788Z,6504.00
2023-04-27T12:16:46.825Z,6480.00
2023-04-27T12:17:46.807Z,6504.00
2023-04-27T12:18:46.761Z,6472.00
2023-04-27T12:19:46.738Z,6520.00
2023-04-27T12:20:46.768Z,6460.00
2023-04-27T12:21:46.750Z,6696.00
2023-04-27T12:22:48.368Z,6832.00
2023-04-27T12:23:46.728Z,6888.00
2023-04-27T12:24:46.707Z,6744.00
2023-04-27T12:25:46.837Z,6744.00